Time;durP1;ratioP1;P1;durP2;ratioP2;P2;SDS_P1;SDS_P2;PMS_P1;PMS_P2;Temp;Humidity;BMP_temperature;BMP_pressure;BME280_temperature;BME280_humidity;BME280_pressure;Samples;Min_cycle;Max_cycle;Signal;HPM_P1;HPM_P2
2023/04/11 00:01:00;;;;;;;1.25;0.70;;;;;;;;;;4932493;29;20078;-60
2023/04/11 00:03:29;;;;;;;1.60;0.90;;;;;;;;;;4932547;29;20055;-60
2023/04/11 00:05:58;;;;;;;1.63;0.77;;;;;;;;;;4931529;29;20146;-61
2023/04/11 00:08:26;;;;;;;1.80;0.80;;;;;;;;;;4932365;29;20135;-60
2023/04/11 00:10:54;;;;;;;1.65;1.10;;;;;;;;;;4932190;29;20126;-63
2023/04/11 00:13:25;;;;;;;1.85;0.95;;;;;;;;;;4932858;29;20090;-60
2023/04/11 00:15:54;;;;;;;1.05;0.88;;;;;;;;;;4931581;28;20070;-59
2023/04/11 00:18:24;;;;;;;1.42;1.10;;;;;;;;;;4924482;29;20063;-60
2023/04/11 00:20:53;;;;;;;2.75;1.08;;;;;;;;;;4928148;29;20055;-59
2023/04/11 00:23:21;;;;;;;2.85;1.00;;;;;;;;;;4932356;29;20059;-59
2023/04/11 00:25:49;;;;;;;2.17;0.77;;;;;;;;;;4931512;28;20048;-61
2023/04/11 00:28:18;;;;;;;4.40;0.88;;;;;;;;;;4932684;29;20220;-62
2023/04/11 00:30:46;;;;;;;4.95;1.17;;;;;;;;;;4932317;29;20055;-61
2023/04/11 00:33:15;;;;;;;0.73;0.63;;;;;;;;;;4932033;29;20056;-62
2023/04/11 00:35:45;;;;;;;1.67;1.10;;;;;;;;;;4931748;28;20147;-60
2023/04/11 00:38:13;;;;;;;4.47;1.08;;;;;;;;;;4932304;29;20048;-61
2023/04/11 00:40:42;;;;;;;4.40;0.90;;;;;;;;;;4931680;29;20115;-59
2023/04/11 00:43:10;;;;;;;1.27;0.70;;;;;;;;;;4932712;29;20055;-59
2023/04/11 00:45:39;;;;;;;1.60;0.80;;;;;;;;;;4931768;28;20134;-58
2023/04/11 00:48:07;;;;;;;1.98;0.95;;;;;;;;;;4932335;29;20099;-60
2023/04/11 00:50:38;;;;;;;2.25;0.90;;;;;;;;;;4932073;29;20059;-59
2023/04/11 00:53:09;;;;;;;1.75;1.05;;;;;;;;;;4931189;29;20547;-59
2023/04/11 00:55:37;;;;;;;3.22;0.63;;;;;;;;;;4931356;29;20075;-59
2023/04/11 00:58:07;;;;;;;1.75;0.65;;;;;;;;;;4932184;29;20082;-60
2023/04/11 01:00:37;;;;;;;1.02;0.60;;;;;;;;;;4932312;29;20047;-61
2023/04/11 01:05:58;;;;;;;0.47;0.47;;;;;;;;;;4876675;29;20059;-61
2023/04/11 01:08:28;;;;;;;0.88;0.82;;;;;;;;;;4878539;29;20057;-59
2023/04/11 01:10:56;;;;;;;1.70;0.93;;;;;;;;;;4878761;29;20064;-59
2023/04/11 01:13:25;;;;;;;0.93;0.60;;;;;;;;;;4878645;29;20099;-60
2023/04/11 01:15:53;;;;;;;1.45;0.80;;;;;;;;;;4878654;29;20084;-58
2023/04/11 01:18:22;;;;;;;1.80;0.88;;;;;;;;;;4878811;29;20060;-59
2023/04/11 01:20:50;;;;;;;0.63;0.63;;;;;;;;;;4878196;29;20486;-59
2023/04/11 01:23:22;;;;;;;0.40;0.40;;;;;;;;;;4879259;29;20077;-59
2023/04/11 01:25:50;;;;;;;0.32;0.32;;;;;;;;;;4878460;29;20451;-59
2023/04/11 01:28:19;;;;;;;1.77;0.73;;;;;;;;;;4879215;29;20124;-58
2023/04/11 01:30:47;;;;;;;1.13;0.75;;;;;;;;;;4878220;29;20061;-59
2023/04/11 01:33:16;;;;;;;0.75;0.50;;;;;;;;;;4879204;29;20048;-59
2023/04/11 01:35:45;;;;;;;0.65;0.60;;;;;;;;;;4878496;29;20076;-62
2023/04/11 01:38:13;;;;;;;1.25;1.15;;;;;;;;;;4856238;29;20050;-58
2023/04/11 01:40:44;;;;;;;1.38;0.77;;;;;;;;;;4855410;29;20060;-60
2023/04/11 01:43:12;;;;;;;1.10;0.50;;;;;;;;;;4856174;29;20566;-59
2023/04/11 01:45:41;;;;;;;0.80;0.55;;;;;;;;;;4854416;29;20463;-59
2023/04/11 01:48:09;;;;;;;0.85;0.80;;;;;;;;;;4856048;29;20515;-59
2023/04/11 01:50:38;;;;;;;1.77;0.57;;;;;;;;;;4855706;29;20061;-59
2023/04/11 01:53:06;;;;;;;0.85;0.50;;;;;;;;;;4855771;29;20053;-59
2023/04/11 01:55:34;;;;;;;1.13;0.63;;;;;;;;;;4862810;29;20049;-60
2023/04/11 01:58:04;;;;;;;1.15;0.60;;;;;;;;;;4860040;29;20049;-60
2023/04/11 02:00:35;;;;;;;0.63;0.52;;;;;;;;;;4855499;29;20049;-59
2023/04/11 02:03:04;;;;;;;2.28;0.93;;;;;;;;;;4855915;29;20611;-58
2023/04/11 02:05:33;;;;;;;1.70;0.70;;;;;;;;;;4874018;29;20061;-59
2023/04/11 02:08:01;;;;;;;1.70;0.70;;;;;;;;;;4877723;29;20495;-59
2023/04/11 02:10:29;;;;;;;0.85;0.52;;;;;;;;;;4877371;29;20049;-59
2023/04/11 02:12:58;;;;;;;2.25;1.00;;;;;;;;;;4877126;29;20477;-60
2023/04/11 02:15:27;;;;;;;0.55;0.50;;;;;;;;;;4877592;29;20057;-60
2023/04/11 02:17:56;;;;;;;0.68;0.47;;;;;;;;;;4877013;29;20049;-61
2023/04/11 02:20:24;;;;;;;0.60;0.50;;;;;;;;;;4876999;29;20093;-59
2023/04/11 02:22:53;;;;;;;1.05;0.57;;;;;;;;;;4877142;29;20061;-59
2023/04/11 02:25:21;;;;;;;3.40;0.90;;;;;;;;;;4877379;29;20061;-59
2023/04/11 02:27:49;;;;;;;1.58;0.80;;;;;;;;;;4876718;29;20052;-59
2023/04/11 02:30:17;;;;;;;0.80;0.50;;;;;;;;;;4877136;29;20111;-59
2023/04/11 02:32:48;;;;;;;0.50;0.28;;;;;;;;;;4864858;29;20402;-59
2023/04/11 02:35:16;;;;;;;0.50;0.45;;;;;;;;;;4876460;29;20620;-59
2023/04/11 02:37:45;;;;;;;0.90;0.50;;;;;;;;;;4876452;29;20506;-60
2023/04/11 02:40:13;;;;;;;1.35;0.73;;;;;;;;;;4876860;29;20060;-59
2023/04/11 02:42:42;;;;;;;0.88;0.52;;;;;;;;;;4877153;29;20088;-59
2023/04/11 02:45:11;;;;;;;0.47;0.43;;;;;;;;;;4876788;29;20049;-59
2023/04/11 02:47:40;;;;;;;1.00;0.60;;;;;;;;;;4876888;29;20068;-59
2023/04/11 02:50:10;;;;;;;1.65;0.57;;;;;;;;;;4876609;29;20049;-60
2023/04/11 02:52:41;;;;;;;0.52;0.30;;;;;;;;;;4876730;29;20089;-60
2023/04/11 02:55:09;;;;;;;0.40;0.40;;;;;;;;;;4876681;29;20053;-58
2023/04/11 02:57:38;;;;;;;2.28;1.15;;;;;;;;;;4875930;29;20053;-59
2023/04/11 03:00:07;;;;;;;0.65;0.50;;;;;;;;;;4876567;29;20116;-60
2023/04/11 03:02:36;;;;;;;1.17;0.63;;;;;;;;;;4876619;29;20094;-61
2023/04/11 03:05:05;;;;;;;0.90;0.30;;;;;;;;;;4876276;29;20140;-60
2023/04/11 03:07:37;;;;;;;0.70;0.70;;;;;;;;;;4875668;29;20091;-59
2023/04/11 03:10:06;;;;;;;0.63;0.52;;;;;;;;;;4864372;29;20060;-59
2023/04/11 03:12:34;;;;;;;0.88;0.50;;;;;;;;;;4876377;29;20140;-59
2023/04/11 03:15:02;;;;;;;1.80;0.57;;;;;;;;;;4876163;29;20540;-60
2023/04/11 03:17:31;;;;;;;0.38;0.28;;;;;;;;;;4874708;29;20160;-60
2023/04/11 03:19:59;;;;;;;0.40;0.22;;;;;;;;;;4876074;29;20871;-60
2023/04/11 03:22:28;;;;;;;0.52;0.45;;;;;;;;;;4875891;29;20152;-59
2023/04/11 03:24:57;;;;;;;0.30;0.30;;;;;;;;;;4876001;29;20418;-59
2023/04/11 03:27:26;;;;;;;0.68;0.40;;;;;;;;;;4874930;29;20055;-59
2023/04/11 03:29:54;;;;;;;0.43;0.43;;;;;;;;;;4875929;29;20069;-60
2023/04/11 03:32:22;;;;;;;0.57;0.38;;;;;;;;;;4876021;29;20534;-60
2023/04/11 03:34:51;;;;;;;0.20;0.20;;;;;;;;;;4875900;29;20337;-60
2023/04/11 03:37:19;;;;;;;0.57;0.38;;;;;;;;;;4875151;29;20049;-59
2023/04/11 03:39:47;;;;;;;0.30;0.30;;;;;;;;;;4876158;29;20495;-60
2023/04/11 03:42:17;;;;;;;0.55;0.47;;;;;;;;;;4876107;29;20059;-60
2023/04/11 03:44:45;;;;;;;0.40;0.30;;;;;;;;;;4875843;29;20336;-59
2023/04/11 03:47:14;;;;;;;0.73;0.50;;;;;;;;;;4875120;29;20053;-59
2023/04/11 03:49:42;;;;;;;3.50;0.82;;;;;;;;;;4875929;29;20131;-59
2023/04/11 03:52:11;;;;;;;1.80;0.40;;;;;;;;;;4875810;29;20135;-59
2023/04/11 03:54:40;;;;;;;2.40;0.50;;;;;;;;;;4873451;29;20098;-59
2023/04/11 03:57:08;;;;;;;2.15;0.43;;;;;;;;;;4875116;29;20430;-59
2023/04/11 03:59:38;;;;;;;0.30;0.30;;;;;;;;;;4875758;29;20144;-60
2023/04/11 04:02:06;;;;;;;0.68;0.43;;;;;;;;;;4875823;29;20044;-60
2023/04/11 04:04:37;;;;;;;3.10;0.68;;;;;;;;;;4874392;29;20057;-59
2023/04/11 04:07:08;;;;;;;7.15;0.40;;;;;;;;;;4874446;29;20558;-60
2023/04/11 04:09:37;;;;;;;0.75;0.60;;;;;;;;;;4874548;29;20410;-59
2023/04/11 04:12:05;;;;;;;1.13;0.47;;;;;;;;;;4874965;29;20085;-59
2023/04/11 04:14:34;;;;;;;0.38;0.38;;;;;;;;;;4874311;29;20478;-60
2023/04/11 04:17:03;;;;;;;0.40;0.20;;;;;;;;;;4874361;29;20144;-62
2023/04/11 04:19:32;;;;;;;0.20;0.20;;;;;;;;;;4874155;29;20051;-60
2023/04/11 04:22:00;;;;;;;0.52;0.38;;;;;;;;;;4874612;29;20446;-60
2023/04/11 04:24:30;;;;;;;0.57;0.43;;;;;;;;;;4872747;29;20167;-60
2023/04/11 04:26:59;;;;;;;0.40;0.40;;;;;;;;;;4873899;29;20057;-59
2023/04/11 04:29:36;;;;;;;1.00;0.47;;;;;;;;;;4874294;29;20079;-60
2023/04/11 04:32:09;;;;;;;0.30;0.20;;;;;;;;;;4874259;29;20059;-60
2023/04/11 04:34:45;;;;;;;0.30;0.22;;;;;;;;;;4874141;29;20135;-60
2023/04/11 04:37:20;;;;;;;0.50;0.40;;;;;;;;;;4873600;29;20129;-60
2023/04/11 04:39:53;;;;;;;0.68;0.50;;;;;;;;;;4874181;29;20053;-59
2023/04/11 04:42:22;;;;;;;0.40;0.25;;;;;;;;;;4874339;29;20550;-61
2023/04/11 04:44:51;;;;;;;0.90;0.40;;;;;;;;;;4874124;29;20053;-60
2023/04/11 04:47:22;;;;;;;9.02;0.73;;;;;;;;;;4873109;29;20056;-60
2023/04/11 04:49:54;;;;;;;0.85;0.50;;;;;;;;;;4874132;29;20140;-60
2023/04/11 04:52:24;;;;;;;0.43;0.43;;;;;;;;;;4873872;29;20136;-59
2023/04/11 04:54:56;;;;;;;0.30;0.30;;;;;;;;;;4874245;29;20081;-60
2023/04/11 04:57:25;;;;;;;0.20;0.20;;;;;;;;;;4874022;29;20085;-61
2023/04/11 04:59:54;;;;;;;0.63;0.63;;;;;;;;;;4873691;29;20081;-60
2023/04/11 05:02:25;;;;;;;0.90;0.32;;;;;;;;;;4873348;29;20045;-60
2023/04/11 05:04:54;;;;;;;1.48;0.30;;;;;;;;;;4836905;29;1103874;-60
2023/04/11 05:07:22;;;;;;;3.00;0.65;;;;;;;;;;4874742;29;20051;-60
2023/04/11 05:09:51;;;;;;;2.28;1.25;;;;;;;;;;4874530;29;20144;-60
2023/04/11 05:12:25;;;;;;;0.75;0.35;;;;;;;;;;4875009;29;20128;-59
2023/04/11 05:14:55;;;;;;;0.40;0.40;;;;;;;;;;4874699;29;20570;-61
2023/04/11 05:17:26;;;;;;;0.93;0.40;;;;;;;;;;4874448;29;20076;-60
2023/04/11 05:19:55;;;;;;;0.50;0.50;;;;;;;;;;4874769;29;20072;-62
2023/04/11 05:22:23;;;;;;;0.73;0.50;;;;;;;;;;4874474;29;20084;-60
2023/04/11 05:24:51;;;;;;;1.52;0.88;;;;;;;;;;4874465;29;20128;-60
2023/04/11 05:27:20;;;;;;;0.80;0.40;;;;;;;;;;4874220;29;20135;-61
2023/04/11 05:29:48;;;;;;;0.38;0.38;;;;;;;;;;4874437;29;20099;-60
2023/04/11 05:32:16;;;;;;;0.65;0.60;;;;;;;;;;4874653;29;20059;-60
2023/04/11 05:34:53;;;;;;;0.30;0.20;;;;;;;;;;4874479;29;20080;-59
2023/04/11 05:37:26;;;;;;;0.20;0.20;;;;;;;;;;4874124;29;20057;-61
2023/04/11 05:39:55;;;;;;;0.30;0.30;;;;;;;;;;4875787;29;20131;-61
2023/04/11 05:42:23;;;;;;;0.68;0.68;;;;;;;;;;4876928;29;20093;-59
2023/04/11 05:44:51;;;;;;;0.63;0.40;;;;;;;;;;4878037;29;20124;-61
2023/04/11 05:47:20;;;;;;;0.22;0.22;;;;;;;;;;4877478;29;20148;-60
2023/04/11 05:49:48;;;;;;;0.50;0.50;;;;;;;;;;4877748;29;20132;-62
2023/04/11 05:52:18;;;;;;;0.50;0.50;;;;;;;;;;4877776;29;20053;-61
2023/04/11 05:54:46;;;;;;;0.50;0.50;;;;;;;;;;4877924;29;20104;-58
2023/04/11 05:57:16;;;;;;;0.75;0.30;;;;;;;;;;4877128;29;20133;-60
2023/04/11 05:59:48;;;;;;;0.30;0.30;;;;;;;;;;4877654;29;20057;-59
2023/04/11 06:02:16;;;;;;;1.08;0.43;;;;;;;;;;4877966;29;20104;-59
2023/04/11 06:04:45;;;;;;;0.40;0.40;;;;;;;;;;4877232;29;20194;-60
2023/04/11 06:07:14;;;;;;;0.73;0.43;;;;;;;;;;4877306;29;20779;-61
2023/04/11 06:09:44;;;;;;;0.65;0.43;;;;;;;;;;4877615;29;20418;-59
2023/04/11 06:12:12;;;;;;;1.08;0.47;;;;;;;;;;4877566;29;20089;-61
2023/04/11 06:14:41;;;;;;;1.10;0.43;;;;;;;;;;4877243;29;20052;-59
2023/04/11 06:17:09;;;;;;;0.30;0.30;;;;;;;;;;4877076;29;20049;-59
2023/04/11 06:19:38;;;;;;;0.52;0.40;;;;;;;;;;4877202;29;20053;-59
2023/04/11 06:22:06;;;;;;;1.02;0.40;;;;;;;;;;4877416;29;20076;-60
2023/04/11 06:24:35;;;;;;;1.63;0.50;;;;;;;;;;4877142;29;20057;-61
2023/04/11 06:27:08;;;;;;;0.63;0.40;;;;;;;;;;4876838;29;20080;-60
2023/04/11 06:29:37;;;;;;;2.53;0.75;;;;;;;;;;4876840;29;20105;-58
2023/04/11 06:32:05;;;;;;;0.95;0.30;;;;;;;;;;4877290;29;20076;-59
2023/04/11 06:34:34;;;;;;;0.75;0.50;;;;;;;;;;4877047;29;20574;-61
2023/04/11 06:37:02;;;;;;;0.75;0.50;;;;;;;;;;4876238;29;20063;-60
2023/04/11 06:39:30;;;;;;;0.93;0.50;;;;;;;;;;4877193;29;20056;-60
2023/04/11 06:41:59;;;;;;;0.52;0.50;;;;;;;;;;4876697;29;20057;-59
2023/04/11 06:44:29;;;;;;;0.68;0.30;;;;;;;;;;4877063;29;20140;-60
2023/04/11 06:46:57;;;;;;;1.85;1.00;;;;;;;;;;4876348;29;20510;-59
2023/04/11 06:49:28;;;;;;;0.45;0.35;;;;;;;;;;4876928;29;20136;-60
2023/04/11 06:51:56;;;;;;;1.75;0.30;;;;;;;;;;4876822;29;20152;-60
2023/04/11 06:54:24;;;;;;;1.27;0.52;;;;;;;;;;4877214;29;20664;-61
2023/04/11 06:56:53;;;;;;;1.08;0.47;;;;;;;;;;4875780;29;20156;-60
2023/04/11 06:59:21;;;;;;;1.63;0.52;;;;;;;;;;4876633;29;20053;-60
2023/04/11 07:01:53;;;;;;;0.77;0.43;;;;;;;;;;4876511;29;20132;-61
2023/04/11 07:04:21;;;;;;;0.52;0.30;;;;;;;;;;4876482;29;20069;-59
2023/04/11 07:06:50;;;;;;;0.98;0.40;;;;;;;;;;4876076;29;20075;-59
2023/04/11 07:09:19;;;;;;;0.28;0.28;;;;;;;;;;4876634;29;20190;-58
2023/04/11 07:11:47;;;;;;;1.17;0.45;;;;;;;;;;4869056;29;20056;-59
2023/04/11 07:14:15;;;;;;;0.13;0.13;;;;;;;;;;4876181;29;20143;-60
2023/04/11 07:16:44;;;;;;;0.52;0.28;;;;;;;;;;4876249;29;20045;-60
2023/04/11 07:19:14;;;;;;;0.60;0.55;;;;;;;;;;4876268;29;20061;-59
2023/04/11 07:21:42;;;;;;;1.15;0.60;;;;;;;;;;4876260;29;20132;-59
2023/04/11 07:24:12;;;;;;;0.45;0.40;;;;;;;;;;4875969;29;20152;-60
2023/04/11 07:26:41;;;;;;;1.90;1.30;;;;;;;;;;4875976;29;20473;-60
2023/04/11 07:29:09;;;;;;;2.75;0.68;;;;;;;;;;4875949;29;20061;-60
2023/04/11 07:31:43;;;;;;;0.30;0.30;;;;;;;;;;4876195;29;20140;-59
2023/04/11 07:34:13;;;;;;;0.35;0.28;;;;;;;;;;4875856;29;20542;-60
2023/04/11 07:36:42;;;;;;;0.25;0.25;;;;;;;;;;4875646;29;20127;-59
2023/04/11 07:39:11;;;;;;;0.82;0.35;;;;;;;;;;4876228;29;20068;-59
2023/04/11 07:41:39;;;;;;;0.20;0.20;;;;;;;;;;4875808;29;20052;-59
2023/04/11 07:44:08;;;;;;;0.30;0.28;;;;;;;;;;4875284;29;20080;-59
2023/04/11 07:46:36;;;;;;;3.40;0.63;;;;;;;;;;4875358;29;20139;-60
2023/04/11 07:49:05;;;;;;;1.40;0.57;;;;;;;;;;4875907;29;20128;-59
2023/04/11 07:51:35;;;;;;;0.13;0.13;;;;;;;;;;4875216;29;20143;-59
2023/04/11 07:54:03;;;;;;;0.50;0.28;;;;;;;;;;4875654;29;20056;-61
2023/04/11 07:56:32;;;;;;;0.32;0.32;;;;;;;;;;4874939;29;20053;-58
2023/04/11 07:59:00;;;;;;;0.17;0.17;;;;;;;;;;4875357;29;20063;-59
2023/04/11 08:01:29;;;;;;;0.10;0.10;;;;;;;;;;4875419;29;20503;-59
2023/04/11 08:03:57;;;;;;;0.10;0.10;;;;;;;;;;4874613;29;20095;-59
2023/04/11 08:06:27;;;;;;;0.17;0.17;;;;;;;;;;4874605;29;20601;-58
2023/04/11 08:08:59;;;;;;;0.60;0.30;;;;;;;;;;4875213;29;20055;-60
2023/04/11 08:11:28;;;;;;;0.10;0.10;;;;;;;;;;4875250;29;20049;-58
2023/04/11 08:13:56;;;;;;;0.95;0.30;;;;;;;;;;4875291;29;20057;-59
2023/04/11 08:16:25;;;;;;;0.63;0.30;;;;;;;;;;4870665;29;20060;-60
2023/04/11 08:18:53;;;;;;;0.25;0.20;;;;;;;;;;4874814;29;20057;-61
2023/04/11 08:21:23;;;;;;;0.20;0.20;;;;;;;;;;4874928;29;20060;-60
2023/04/11 08:23:52;;;;;;;0.10;0.10;;;;;;;;;;4875013;29;20132;-63
2023/04/11 08:26:22;;;;;;;0.20;0.20;;;;;;;;;;4874463;29;20120;-60
2023/04/11 08:28:50;;;;;;;0.30;0.20;;;;;;;;;;4874677;29;20502;-60
2023/04/11 08:31:18;;;;;;;3.03;0.15;;;;;;;;;;4875166;29;20061;-60
2023/04/11 08:33:47;;;;;;;4.45;0.52;;;;;;;;;;4874788;29;20566;-59
2023/04/11 08:36:15;;;;;;;0.57;0.20;;;;;;;;;;4874282;29;20168;-61
2023/04/11 08:38:44;;;;;;;0.10;0.10;;;;;;;;;;4874770;29;20065;-59
2023/04/11 08:41:13;;;;;;;0.20;0.10;;;;;;;;;;4874662;29;20056;-61
2023/04/11 08:43:45;;;;;;;3.03;0.40;;;;;;;;;;4874649;29;20049;-62
2023/04/11 08:46:15;;;;;;;0.20;0.20;;;;;;;;;;4874189;29;20511;-59
2023/04/11 08:48:43;;;;;;;6.75;0.35;;;;;;;;;;4874935;29;20063;-60
2023/04/11 08:51:13;;;;;;;1.48;0.43;;;;;;;;;;4874427;29;20410;-60
2023/04/11 08:53:42;;;;;;;0.45;0.30;;;;;;;;;;4874685;29;20057;-60
2023/04/11 08:56:16;;;;;;;0.10;0.10;;;;;;;;;;4873901;29;20081;-60
2023/04/11 08:58:45;;;;;;;0.15;0.15;;;;;;;;;;4874784;29;20104;-61
2023/04/11 09:01:30;;;;;;;0.20;0.20;;;;;;;;;;4874266;29;20083;-59
2023/04/11 09:04:00;;;;;;;0.10;0.10;;;;;;;;;;4874390;29;20061;-60
2023/04/11 09:06:29;;;;;;;0.20;0.20;;;;;;;;;;4873680;29;20091;-61
2023/04/11 09:08:59;;;;;;;0.20;0.20;;;;;;;;;;4874569;29;20423;-60
2023/04/11 09:11:27;;;;;;;0.10;0.10;;;;;;;;;;4874073;29;20612;-60
2023/04/11 09:14:10;;;;;;;0.10;0.10;;;;;;;;;;4874660;29;20140;-62
2023/04/11 09:16:53;;;;;;;1.65;0.68;;;;;;;;;;4866517;29;20057;-61
2023/04/11 09:19:24;;;;;;;0.60;0.25;;;;;;;;;;4878161;29;20156;-61
2023/04/11 09:21:53;;;;;;;0.52;0.40;;;;;;;;;;4878088;29;20417;-60
2023/04/11 09:24:22;;;;;;;0.73;0.55;;;;;;;;;;4877728;29;20049;-60
2023/04/11 09:26:51;;;;;;;0.22;0.13;;;;;;;;;;4877639;29;20057;-62
2023/04/11 09:29:36;;;;;;;0.40;0.20;;;;;;;;;;4878370;29;20554;-63
2023/04/11 09:32:04;;;;;;;0.10;0.10;;;;;;;;;;4878326;29;20052;-65
2023/04/11 09:34:36;;;;;;;0.17;0.17;;;;;;;;;;4877897;29;20052;-64
2023/04/11 09:37:05;;;;;;;1.35;0.50;;;;;;;;;;4877406;29;20123;-61
2023/04/11 09:39:33;;;;;;;0.20;0.20;;;;;;;;;;4878373;29;20049;-61
2023/04/11 09:42:02;;;;;;;1.58;1.48;;;;;;;;;;4877894;29;20069;-60
2023/04/11 09:44:40;;;;;;;0.80;0.30;;;;;;;;;;4877947;29;20096;-59
2023/04/11 09:47:09;;;;;;;0.80;0.20;;;;;;;;;;4877220;29;20087;-61
2023/04/11 09:49:39;;;;;;;0.30;0.30;;;;;;;;;;4878630;29;20127;-61
2023/04/11 09:52:07;;;;;;;0.22;0.22;;;;;;;;;;4877786;29;20137;-60
2023/04/11 09:54:36;;;;;;;1.08;0.30;;;;;;;;;;4878293;29;20060;-60
2023/04/11 09:57:06;;;;;;;0.40;0.40;;;;;;;;;;4877141;29;20455;-62
2023/04/11 09:59:37;;;;;;;0.10;0.10;;;;;;;;;;4877762;29;20439;-59
2023/04/11 10:02:07;;;;;;;2.25;0.35;;;;;;;;;;4877345;29;20449;-60
2023/04/11 10:04:37;;;;;;;0.10;0.10;;;;;;;;;;4877510;29;20419;-58
2023/04/11 10:07:09;;;;;;;1.55;0.40;;;;;;;;;;4876755;29;20049;-59
2023/04/11 10:09:39;;;;;;;1.23;0.25;;;;;;;;;;4877203;29;20060;-59
2023/04/11 10:12:07;;;;;;;0.35;0.28;;;;;;;;;;4877351;29;20049;-58
2023/04/11 10:14:42;;;;;;;0.30;0.20;;;;;;;;;;4877403;29;20132;-60
2023/04/11 10:17:10;;;;;;;;;;;;;;;;;;4877340;29;20394;-59
2023/04/11 10:19:40;;;;;;;0.10;0.10;;;;;;;;;;4876895;29;19924;-59
2023/04/11 10:22:09;;;;;;;0.43;0.30;;;;;;;;;;4877266;29;20052;-60
2023/04/11 10:24:37;;;;;;;0.60;0.20;;;;;;;;;;4877473;29;20103;-61
2023/04/11 10:27:06;;;;;;;0.10;0.10;;;;;;;;;;4863931;29;20056;-61
2023/04/11 10:29:51;;;;;;;0.10;0.10;;;;;;;;;;4865250;29;20148;-60
2023/04/11 10:32:20;;;;;;;;;;;;;;;;;;4877406;29;20052;-60
2023/04/11 10:35:07;;;;;;;0.50;0.22;;;;;;;;;;4877206;29;19924;-59
2023/04/11 10:37:37;;;;;;;3.15;0.40;;;;;;;;;;4876357;29;20084;-61
2023/04/11 10:40:08;;;;;;;0.13;0.13;;;;;;;;;;4876657;29;20045;-60
2023/04/11 10:42:38;;;;;;;2.08;0.45;;;;;;;;;;4865091;29;20053;-59
2023/04/11 10:45:20;;;;;;;0.43;0.43;;;;;;;;;;4876919;29;20144;-59
2023/04/11 10:48:06;;;;;;;0.90;0.50;;;;;;;;;;4876579;29;20053;-59
2023/04/11 10:50:36;;;;;;;0.10;0.10;;;;;;;;;;4874071;29;20065;-60
2023/04/11 10:53:06;;;;;;;1.27;0.30;;;;;;;;;;4876893;29;20140;-60
2023/04/11 10:55:45;;;;;;;1.92;0.50;;;;;;;;;;4864374;29;20063;-60
2023/04/11 10:58:15;;;;;;;0.45;0.45;;;;;;;;;;4876478;29;20432;-61
2023/04/11 11:01:03;;;;;;;0.20;0.20;;;;;;;;;;4876548;29;20049;-58
2023/04/11 11:03:33;;;;;;;0.10;0.10;;;;;;;;;;4876359;29;20057;-60
2023/04/11 11:06:02;;;;;;;0.17;0.17;;;;;;;;;;4869645;29;20128;-59
2023/04/11 11:08:34;;;;;;;0.10;0.10;;;;;;;;;;4876446;29;20045;-60
2023/04/11 11:11:02;;;;;;;0.20;0.20;;;;;;;;;;4876807;29;20080;-59
2023/04/11 11:13:39;;;;;;;0.30;0.30;;;;;;;;;;4876341;29;20542;-59
2023/04/11 11:16:08;;;;;;;0.20;0.20;;;;;;;;;;4875839;29;20076;-59
2023/04/11 11:18:37;;;;;;;0.77;0.47;;;;;;;;;;4876460;29;20468;-60
2023/04/11 11:21:06;;;;;;;2.45;1.38;;;;;;;;;;4876175;29;20580;-60
2023/04/11 11:23:53;;;;;;;0.57;0.25;;;;;;;;;;4876547;29;20064;-60
2023/04/11 11:26:23;;;;;;;0.10;0.10;;;;;;;;;;4864513;29;20057;-59
2023/04/11 11:28:51;;;;;;;0.22;0.20;;;;;;;;;;4875873;29;20464;-59
2023/04/11 11:31:20;;;;;;;0.30;0.30;;;;;;;;;;4876089;29;20125;-59
2023/04/11 11:33:48;;;;;;;7.53;0.50;;;;;;;;;;4875734;29;20139;-61
2023/04/11 11:36:17;;;;;;;0.20;0.20;;;;;;;;;;4875403;29;20143;-61
2023/04/11 11:38:47;;;;;;;0.95;0.30;;;;;;;;;;4874932;29;20053;-58
2023/04/11 11:41:16;;;;;;;0.32;0.32;;;;;;;;;;4876046;29;20140;-59
2023/04/11 11:43:45;;;;;;;1.27;0.28;;;;;;;;;;4875997;29;20131;-63
2023/04/11 11:46:15;;;;;;;4.90;0.20;;;;;;;;;;4875290;29;20049;-65
2023/04/11 11:48:44;;;;;;;0.50;0.38;;;;;;;;;;4875962;29;20059;-59
2023/04/11 11:51:13;;;;;;;0.40;0.40;;;;;;;;;;4875619;29;20418;-59
2023/04/11 11:53:41;;;;;;;2.85;1.58;;;;;;;;;;4875296;29;20115;-60
2023/04/11 11:56:15;;;;;;;0.20;0.20;;;;;;;;;;4875229;29;20051;-59
2023/04/11 11:58:44;;;;;;;0.30;0.30;;;;;;;;;;4875612;29;20056;-59
2023/04/11 12:01:14;;;;;;;1.27;0.35;;;;;;;;;;4875409;29;20400;-60
2023/04/11 12:03:43;;;;;;;0.10;0.10;;;;;;;;;;4875382;29;20065;-59
2023/04/11 12:06:12;;;;;;;0.22;0.22;;;;;;;;;;4875034;29;20049;-60
2023/04/11 12:08:48;;;;;;;3.30;0.30;;;;;;;;;;4875578;29;20053;-61
2023/04/11 12:11:18;;;;;;;0.20;0.20;;;;;;;;;;4875330;29;20136;-59
2023/04/11 12:13:52;;;;;;;0.25;0.20;;;;;;;;;;4875682;29;20045;-59
2023/04/11 12:16:22;;;;;;;4.00;0.60;;;;;;;;;;4874722;29;20136;-59
2023/04/11 12:18:50;;;;;;;0.30;0.30;;;;;;;;;;4874699;29;20429;-61
2023/04/11 12:21:19;;;;;;;0.70;0.30;;;;;;;;;;4875169;29;20081;-60
2023/04/11 12:23:47;;;;;;;3.17;0.40;;;;;;;;;;4875326;29;20063;-59
2023/04/11 12:26:16;;;;;;;0.50;0.38;;;;;;;;;;4862558;29;20052;-59
2023/04/11 12:28:46;;;;;;;2.85;0.20;;;;;;;;;;4874561;29;20056;-61
2023/04/11 12:31:14;;;;;;;0.75;0.22;;;;;;;;;;4875512;29;20096;-59
2023/04/11 12:33:43;;;;;;;0.22;0.20;;;;;;;;;;4874641;29;20056;-61
2023/04/11 12:36:12;;;;;;;0.55;0.40;;;;;;;;;;4874635;29;20139;-62
2023/04/11 12:38:41;;;;;;;1.30;0.32;;;;;;;;;;4874662;29;20064;-59
2023/04/11 12:41:09;;;;;;;0.45;0.20;;;;;;;;;;4874793;29;20141;-59
2023/04/11 12:44:00;;;;;;;2.65;0.65;;;;;;;;;;4875114;29;20075;-59
2023/04/11 12:46:29;;;;;;;0.65;0.40;;;;;;;;;;4874283;29;20053;-59
2023/04/11 12:48:57;;;;;;;4.50;1.13;;;;;;;;;;4874406;29;20052;-60
2023/04/11 12:51:26;;;;;;;3.10;0.20;;;;;;;;;;4874575;29;20084;-59
2023/04/11 12:53:54;;;;;;;0.50;0.20;;;;;;;;;;4874916;29;20092;-59
2023/04/11 12:56:23;;;;;;;2.38;0.30;;;;;;;;;;4874426;29;20081;-59
2023/04/11 12:58:51;;;;;;;0.65;0.22;;;;;;;;;;4874332;29;20525;-58
2023/04/11 13:01:22;;;;;;;3.60;0.20;;;;;;;;;;4874889;29;20061;-59
2023/04/11 13:03:50;;;;;;;0.20;0.20;;;;;;;;;;4874738;29;20061;-57
2023/04/11 13:06:19;;;;;;;0.50;0.35;;;;;;;;;;4874386;29;20101;-58
2023/04/11 13:08:47;;;;;;;1.33;0.40;;;;;;;;;;4874645;29;20143;-58
2023/04/11 13:11:16;;;;;;;5.38;0.73;;;;;;;;;;4875123;29;20132;-60
2023/04/11 13:13:44;;;;;;;0.60;0.38;;;;;;;;;;4874617;29;20153;-60
2023/04/11 13:16:12;;;;;;;1.25;0.30;;;;;;;;;;4874032;29;20475;-60
2023/04/11 13:18:42;;;;;;;0.82;0.63;;;;;;;;;;4874481;29;20069;-59
2023/04/11 13:21:11;;;;;;;1.08;0.57;;;;;;;;;;4874005;29;20049;-58
2023/04/11 13:23:39;;;;;;;0.30;0.22;;;;;;;;;;4874556;29;20428;-59
2023/04/11 13:26:08;;;;;;;1.48;0.38;;;;;;;;;;4873919;29;20078;-59
2023/04/11 13:28:37;;;;;;;1.60;0.60;;;;;;;;;;4874194;29;20091;-59
2023/04/11 13:31:09;;;;;;;0.30;0.30;;;;;;;;;;4874559;29;20046;-61
2023/04/11 13:33:39;;;;;;;1.17;0.50;;;;;;;;;;4868537;29;20579;-59
2023/04/11 13:36:10;;;;;;;2.58;0.40;;;;;;;;;;4861376;29;20053;-60
2023/04/11 13:38:38;;;;;;;0.57;0.30;;;;;;;;;;4873847;29;20187;-58
2023/04/11 13:41:06;;;;;;;0.68;0.60;;;;;;;;;;4873893;29;20448;-59
2023/04/11 13:43:35;;;;;;;0.20;0.20;;;;;;;;;;4873920;29;20100;-61
2023/04/11 13:46:03;;;;;;;0.50;0.20;;;;;;;;;;4873807;29;20056;-60
2023/04/11 13:48:32;;;;;;;0.17;0.17;;;;;;;;;;4873602;29;20049;-59
2023/04/11 13:51:00;;;;;;;4.65;0.38;;;;;;;;;;4874262;29;20061;-59
2023/04/11 13:53:30;;;;;;;0.10;0.10;;;;;;;;;;4873763;29;20045;-58
2023/04/11 13:55:58;;;;;;;0.77;0.30;;;;;;;;;;4874409;29;20061;-60
2023/04/11 13:58:26;;;;;;;0.20;0.20;;;;;;;;;;4873830;29;20052;-59
2023/04/11 14:00:55;;;;;;;0.47;0.47;;;;;;;;;;4875607;29;20132;-61
2023/04/11 14:03:24;;;;;;;0.20;0.20;;;;;;;;;;4877098;29;20061;-61
2023/04/11 14:05:52;;;;;;;0.28;0.20;;;;;;;;;;4877050;29;20140;-59
2023/04/11 14:08:21;;;;;;;0.20;0.20;;;;;;;;;;4877865;29;20151;-59
2023/04/11 14:10:50;;;;;;;1.70;0.35;;;;;;;;;;4877881;29;20542;-61
2023/04/11 14:13:19;;;;;;;1.23;0.20;;;;;;;;;;4877729;29;20049;-58
2023/04/11 14:15:48;;;;;;;0.60;0.30;;;;;;;;;;4877161;29;20100;-60
2023/04/11 14:18:32;;;;;;;0.40;0.40;;;;;;;;;;4877808;29;20067;-60
2023/04/11 14:21:00;;;;;;;0.35;0.28;;;;;;;;;;4877171;29;20088;-60
2023/04/11 14:23:29;;;;;;;0.50;0.25;;;;;;;;;;4877473;29;20049;-59
2023/04/11 14:25:59;;;;;;;0.43;0.30;;;;;;;;;;4877018;29;20059;-61
2023/04/11 14:28:27;;;;;;;0.25;0.20;;;;;;;;;;4877425;29;20571;-60
2023/04/11 14:30:56;;;;;;;0.30;0.20;;;;;;;;;;4876886;29;20427;-59
2023/04/11 14:33:25;;;;;;;6.70;0.65;;;;;;;;;;4877675;29;20060;-60
2023/04/11 14:35:53;;;;;;;1.75;0.43;;;;;;;;;;4876646;29;20075;-61
2023/04/11 14:38:22;;;;;;;0.30;0.30;;;;;;;;;;4877375;29;20575;-60
2023/04/11 14:40:50;;;;;;;1.58;0.30;;;;;;;;;;4877190;29;20061;-60
2023/04/11 14:43:20;;;;;;;4.45;0.50;;;;;;;;;;4877137;29;20509;-59
2023/04/11 14:45:48;;;;;;;0.77;0.20;;;;;;;;;;4876832;29;20377;-60
2023/04/11 14:48:16;;;;;;;0.10;0.10;;;;;;;;;;4877447;29;20049;-59
2023/04/11 14:50:45;;;;;;;0.30;0.30;;;;;;;;;;4864741;29;20057;-59
2023/04/11 14:53:13;;;;;;;0.70;0.30;;;;;;;;;;4876284;29;20148;-60
2023/04/11 14:55:42;;;;;;;3.58;0.20;;;;;;;;;;4876333;29;20055;-64
2023/04/11 14:58:11;;;;;;;2.50;0.32;;;;;;;;;;4876582;29;20065;-59
2023/04/11 15:00:41;;;;;;;0.57;0.30;;;;;;;;;;4876604;29;20133;-59